To NAV CANADA Home Page Login to a new session Search on AWWS site Feedback and Comments Disclaimer Vers la page française équivalente Tips FAQ What's new on the site To the Forecasts and Observations / NOTAM section To "File a Flight Plan" website Publications and other links Update of the User's profile FIC Telephone Numbers My Weather Data Folder Route Weather Data Regional Weather Data Local Weather Data To the Forecasts and Observations / NOTAM section
Request Generated 05/05/2016 at 23:49:31 UTC . Weather information available at that time is displayed.

METAR/TAF

MEDICINE HAT/AB    (show WxCam)

METAR CYXH 052300Z 33018G23KT 10SM BKN130 OVC270 22/06 A2991 RMK
AC5CI3 FU SLP129 DENSITY ALT 3600FT=
METAR CYXH 052200Z 33015G24KT 30SM SCT140 OVC270 22/05 A2990 RMK
AC3CI5 SLP127 DENSITY ALT 3600FT=
METAR CYXH 052100Z 32018G25KT 290V350 30SM FEW120 OVC270 23/06 A2989
RMK AC1CI7 SLP119 DENSITY ALT 3800FT=

TAF CYXH 052342Z 0600/0612 33015G25KT P6SM BKN100 BKN260
FM060800 35008KT P6SM SCT120
RMK NXT FCST BY 060600Z=
Your time UTC time
Weather data provided by Environment Canada and NAV CANADA